sensor_id;sensor_type;location;lat;lon;timestamp;P1;durP1;ratioP1;P2;durP2;ratioP2
61397;SDS011;47267;48.130;-2.040;2023-05-17T00:02:16;2.08;;;0.75;;
61397;SDS011;47267;48.130;-2.040;2023-05-17T00:04:42;1.77;;;0.90;;
61397;SDS011;47267;48.130;-2.040;2023-05-17T00:07:09;2.42;;;0.55;;
61397;SDS011;47267;48.130;-2.040;2023-05-17T00:09:35;4.10;;;0.93;;
61397;SDS011;47267;48.130;-2.040;2023-05-17T00:12:00;2.72;;;1.23;;
61397;SDS011;47267;48.130;-2.040;2023-05-17T00:14:26;2.17;;;0.60;;
61397;SDS011;47267;48.130;-2.040;2023-05-17T00:16:52;3.33;;;1.08;;
61397;SDS011;47267;48.130;-2.040;2023-05-17T00:19:18;1.50;;;0.80;;
61397;SDS011;47267;48.130;-2.040;2023-05-17T00:21:43;2.90;;;0.93;;
61397;SDS011;47267;48.130;-2.040;2023-05-17T00:24:09;1.85;;;0.88;;
61397;SDS011;47267;48.130;-2.040;2023-05-17T00:26:35;1.50;;;0.80;;
61397;SDS011;47267;48.130;-2.040;2023-05-17T00:29:00;2.67;;;0.75;;
61397;SDS011;47267;48.130;-2.040;2023-05-17T00:31:26;1.10;;;0.60;;
61397;SDS011;47267;48.130;-2.040;2023-05-17T00:33:52;0.90;;;0.50;;
61397;SDS011;47267;48.130;-2.040;2023-05-17T00:36:18;1.58;;;0.60;;
61397;SDS011;47267;48.130;-2.040;2023-05-17T00:38:43;2.30;;;0.90;;
61397;SDS011;47267;48.130;-2.040;2023-05-17T00:41:09;1.52;;;0.47;;
61397;SDS011;47267;48.130;-2.040;2023-05-17T00:43:35;2.03;;;0.90;;
61397;SDS011;47267;48.130;-2.040;2023-05-17T00:46:01;1.90;;;0.70;;
61397;SDS011;47267;48.130;-2.040;2023-05-17T00:48:27;1.90;;;0.60;;
61397;SDS011;47267;48.130;-2.040;2023-05-17T00:50:53;1.63;;;0.57;;
61397;SDS011;47267;48.130;-2.040;2023-05-17T00:53:20;1.52;;;0.73;;
61397;SDS011;47267;48.130;-2.040;2023-05-17T00:55:46;1.25;;;0.60;;
61397;SDS011;47267;48.130;-2.040;2023-05-17T00:58:12;1.33;;;0.60;;
61397;SDS011;47267;48.130;-2.040;2023-05-17T01:00:39;1.90;;;0.70;;
61397;SDS011;47267;48.130;-2.040;2023-05-17T01:03:05;1.98;;;0.88;;
61397;SDS011;47267;48.130;-2.040;2023-05-17T01:05:31;1.92;;;0.65;;
61397;SDS011;47267;48.130;-2.040;2023-05-17T01:07:57;2.72;;;0.65;;
61397;SDS011;47267;48.130;-2.040;2023-05-17T01:10:23;2.92;;;0.80;;
61397;SDS011;47267;48.130;-2.040;2023-05-17T01:13:14;1.95;;;0.75;;
61397;SDS011;47267;48.130;-2.040;2023-05-17T01:15:55;1.15;;;0.50;;
61397;SDS011;47267;48.130;-2.040;2023-05-17T01:21:16;2.70;;;0.80;;
61397;SDS011;47267;48.130;-2.040;2023-05-17T01:24:13;1.70;;;0.70;;
61397;SDS011;47267;48.130;-2.040;2023-05-17T01:26:44;2.85;;;0.82;;
61397;SDS011;47267;48.130;-2.040;2023-05-17T01:29:12;3.03;;;0.60;;
61397;SDS011;47267;48.130;-2.040;2023-05-17T01:31:40;1.60;;;0.60;;
61397;SDS011;47267;48.130;-2.040;2023-05-17T01:34:07;1.50;;;0.70;;
61397;SDS011;47267;48.130;-2.040;2023-05-17T01:36:33;1.58;;;0.80;;
61397;SDS011;47267;48.130;-2.040;2023-05-17T01:39:00;0.95;;;0.63;;
61397;SDS011;47267;48.130;-2.040;2023-05-17T01:41:27;2.03;;;0.70;;
61397;SDS011;47267;48.130;-2.040;2023-05-17T01:47:08;1.77;;;0.90;;
61397;SDS011;47267;48.130;-2.040;2023-05-17T01:49:40;2.33;;;0.90;;
61397;SDS011;47267;48.130;-2.040;2023-05-17T01:52:15;1.27;;;0.60;;
61397;SDS011;47267;48.130;-2.040;2023-05-17T01:54:47;1.20;;;0.60;;
61397;SDS011;47267;48.130;-2.040;2023-05-17T01:57:28;1.30;;;0.68;;
61397;SDS011;47267;48.130;-2.040;2023-05-17T01:59:59;1.40;;;0.60;;
61397;SDS011;47267;48.130;-2.040;2023-05-17T02:02:29;1.73;;;0.60;;
61397;SDS011;47267;48.130;-2.040;2023-05-17T02:04:54;1.40;;;0.60;;
61397;SDS011;47267;48.130;-2.040;2023-05-17T02:07:20;1.70;;;0.60;;
61397;SDS011;47267;48.130;-2.040;2023-05-17T02:09:46;1.35;;;0.52;;
61397;SDS011;47267;48.130;-2.040;2023-05-17T02:12:11;1.63;;;0.70;;
61397;SDS011;47267;48.130;-2.040;2023-05-17T02:14:37;2.67;;;0.80;;
61397;SDS011;47267;48.130;-2.040;2023-05-17T02:17:03;1.73;;;0.70;;
61397;SDS011;47267;48.130;-2.040;2023-05-17T02:19:30;2.55;;;0.98;;
61397;SDS011;47267;48.130;-2.040;2023-05-17T02:21:56;1.65;;;0.60;;
61397;SDS011;47267;48.130;-2.040;2023-05-17T02:24:21;1.67;;;0.60;;
61397;SDS011;47267;48.130;-2.040;2023-05-17T02:26:47;1.15;;;0.60;;
61397;SDS011;47267;48.130;-2.040;2023-05-17T02:29:13;2.10;;;0.60;;
61397;SDS011;47267;48.130;-2.040;2023-05-17T02:31:39;1.27;;;0.60;;
61397;SDS011;47267;48.130;-2.040;2023-05-17T02:34:05;1.08;;;0.60;;
61397;SDS011;47267;48.130;-2.040;2023-05-17T02:36:30;1.73;;;0.85;;
61397;SDS011;47267;48.130;-2.040;2023-05-17T02:38:56;2.45;;;0.57;;
61397;SDS011;47267;48.130;-2.040;2023-05-17T02:41:22;3.95;;;0.70;;
61397;SDS011;47267;48.130;-2.040;2023-05-17T02:43:48;1.13;;;0.50;;
61397;SDS011;47267;48.130;-2.040;2023-05-17T02:46:14;1.55;;;0.73;;
61397;SDS011;47267;48.130;-2.040;2023-05-17T02:48:40;1.17;;;0.65;;
61397;SDS011;47267;48.130;-2.040;2023-05-17T02:51:06;1.83;;;0.60;;
61397;SDS011;47267;48.130;-2.040;2023-05-17T02:53:31;1.30;;;0.60;;
61397;SDS011;47267;48.130;-2.040;2023-05-17T02:55:57;0.80;;;0.50;;
61397;SDS011;47267;48.130;-2.040;2023-05-17T02:58:23;1.05;;;0.50;;
61397;SDS011;47267;48.130;-2.040;2023-05-17T03:00:49;1.42;;;0.60;;
61397;SDS011;47267;48.130;-2.040;2023-05-17T03:03:15;0.85;;;0.40;;
61397;SDS011;47267;48.130;-2.040;2023-05-17T03:05:41;2.75;;;0.80;;
61397;SDS011;47267;48.130;-2.040;2023-05-17T03:08:06;1.48;;;0.60;;
61397;SDS011;47267;48.130;-2.040;2023-05-17T03:10:32;1.33;;;0.70;;
61397;SDS011;47267;48.130;-2.040;2023-05-17T03:12:58;1.02;;;0.57;;
61397;SDS011;47267;48.130;-2.040;2023-05-17T03:15:23;1.67;;;0.63;;
61397;SDS011;47267;48.130;-2.040;2023-05-17T03:17:53;1.05;;;0.70;;
61397;SDS011;47267;48.130;-2.040;2023-05-17T03:20:19;1.35;;;0.63;;
61397;SDS011;47267;48.130;-2.040;2023-05-17T03:22:45;1.60;;;0.55;;
61397;SDS011;47267;48.130;-2.040;2023-05-17T03:25:11;1.98;;;0.57;;
61397;SDS011;47267;48.130;-2.040;2023-05-17T03:27:37;1.10;;;0.60;;
61397;SDS011;47267;48.130;-2.040;2023-05-17T03:30:02;1.08;;;0.60;;
61397;SDS011;47267;48.130;-2.040;2023-05-17T03:32:28;1.35;;;0.80;;
61397;SDS011;47267;48.130;-2.040;2023-05-17T03:34:54;0.65;;;0.50;;
61397;SDS011;47267;48.130;-2.040;2023-05-17T03:37:20;0.95;;;0.60;;
61397;SDS011;47267;48.130;-2.040;2023-05-17T03:39:46;2.38;;;0.60;;
61397;SDS011;47267;48.130;-2.040;2023-05-17T03:42:11;1.48;;;0.65;;
61397;SDS011;47267;48.130;-2.040;2023-05-17T03:44:37;1.00;;;0.60;;
61397;SDS011;47267;48.130;-2.040;2023-05-17T03:47:04;0.85;;;0.57;;
61397;SDS011;47267;48.130;-2.040;2023-05-17T03:49:30;1.10;;;0.55;;
61397;SDS011;47267;48.130;-2.040;2023-05-17T03:51:56;1.40;;;0.60;;
61397;SDS011;47267;48.130;-2.040;2023-05-17T03:54:21;1.63;;;0.70;;
61397;SDS011;47267;48.130;-2.040;2023-05-17T03:56:47;0.82;;;0.40;;
61397;SDS011;47267;48.130;-2.040;2023-05-17T03:59:14;0.95;;;0.60;;
61397;SDS011;47267;48.130;-2.040;2023-05-17T04:01:41;1.38;;;0.50;;
61397;SDS011;47267;48.130;-2.040;2023-05-17T04:04:07;1.65;;;0.50;;
61397;SDS011;47267;48.130;-2.040;2023-05-17T04:06:33;1.52;;;0.60;;
61397;SDS011;47267;48.130;-2.040;2023-05-17T04:08:59;1.42;;;0.55;;
61397;SDS011;47267;48.130;-2.040;2023-05-17T04:11:25;1.02;;;0.50;;
61397;SDS011;47267;48.130;-2.040;2023-05-17T04:13:52;0.90;;;0.50;;
61397;SDS011;47267;48.130;-2.040;2023-05-17T04:16:18;2.00;;;0.60;;
61397;SDS011;47267;48.130;-2.040;2023-05-17T04:18:44;0.70;;;0.40;;
61397;SDS011;47267;48.130;-2.040;2023-05-17T04:21:10;0.88;;;0.60;;
61397;SDS011;47267;48.130;-2.040;2023-05-17T04:23:36;1.38;;;0.45;;
61397;SDS011;47267;48.130;-2.040;2023-05-17T04:26:02;0.82;;;0.50;;
61397;SDS011;47267;48.130;-2.040;2023-05-17T04:28:29;1.15;;;0.45;;
61397;SDS011;47267;48.130;-2.040;2023-05-17T04:30:55;1.25;;;0.50;;
61397;SDS011;47267;48.130;-2.040;2023-05-17T04:33:21;1.25;;;0.50;;
61397;SDS011;47267;48.130;-2.040;2023-05-17T04:35:48;2.28;;;0.70;;
61397;SDS011;47267;48.130;-2.040;2023-05-17T04:38:14;1.05;;;0.70;;
61397;SDS011;47267;48.130;-2.040;2023-05-17T04:40:40;1.20;;;0.57;;
61397;SDS011;47267;48.130;-2.040;2023-05-17T04:43:06;0.98;;;0.55;;
61397;SDS011;47267;48.130;-2.040;2023-05-17T04:45:32;1.10;;;0.52;;
61397;SDS011;47267;48.130;-2.040;2023-05-17T04:47:58;0.95;;;0.43;;
61397;SDS011;47267;48.130;-2.040;2023-05-17T04:50:24;0.70;;;0.40;;
61397;SDS011;47267;48.130;-2.040;2023-05-17T04:52:50;2.00;;;0.70;;
61397;SDS011;47267;48.130;-2.040;2023-05-17T04:55:16;1.67;;;0.50;;
61397;SDS011;47267;48.130;-2.040;2023-05-17T04:57:42;2.50;;;0.60;;
61397;SDS011;47267;48.130;-2.040;2023-05-17T05:00:08;2.92;;;0.77;;
61397;SDS011;47267;48.130;-2.040;2023-05-17T05:02:34;1.13;;;0.50;;
61397;SDS011;47267;48.130;-2.040;2023-05-17T05:05:00;1.40;;;0.70;;
61397;SDS011;47267;48.130;-2.040;2023-05-17T05:07:28;1.48;;;0.52;;
61397;SDS011;47267;48.130;-2.040;2023-05-17T05:09:55;0.93;;;0.50;;
61397;SDS011;47267;48.130;-2.040;2023-05-17T05:12:20;1.35;;;0.60;;
61397;SDS011;47267;48.130;-2.040;2023-05-17T05:14:46;2.05;;;0.60;;
61397;SDS011;47267;48.130;-2.040;2023-05-17T05:17:12;0.80;;;0.50;;
61397;SDS011;47267;48.130;-2.040;2023-05-17T05:19:37;0.82;;;0.55;;
61397;SDS011;47267;48.130;-2.040;2023-05-17T05:22:04;1.80;;;0.60;;
61397;SDS011;47267;48.130;-2.040;2023-05-17T05:24:30;1.58;;;0.57;;
61397;SDS011;47267;48.130;-2.040;2023-05-17T05:26:55;1.33;;;0.63;;
61397;SDS011;47267;48.130;-2.040;2023-05-17T05:29:21;0.90;;;0.50;;
61397;SDS011;47267;48.130;-2.040;2023-05-17T05:31:47;0.93;;;0.60;;
61397;SDS011;47267;48.130;-2.040;2023-05-17T05:34:12;2.58;;;0.50;;
61397;SDS011;47267;48.130;-2.040;2023-05-17T05:36:38;1.45;;;0.45;;
61397;SDS011;47267;48.130;-2.040;2023-05-17T05:39:04;0.63;;;0.50;;
61397;SDS011;47267;48.130;-2.040;2023-05-17T05:41:29;2.55;;;0.70;;
61397;SDS011;47267;48.130;-2.040;2023-05-17T05:43:55;1.70;;;0.52;;
61397;SDS011;47267;48.130;-2.040;2023-05-17T05:46:21;2.50;;;0.60;;
61397;SDS011;47267;48.130;-2.040;2023-05-17T05:48:47;3.13;;;0.95;;
61397;SDS011;47267;48.130;-2.040;2023-05-17T05:51:12;2.05;;;0.82;;
61397;SDS011;47267;48.130;-2.040;2023-05-17T05:53:38;3.35;;;0.98;;
61397;SDS011;47267;48.130;-2.040;2023-05-17T05:56:04;3.53;;;1.10;;
61397;SDS011;47267;48.130;-2.040;2023-05-17T05:58:30;3.17;;;1.17;;
61397;SDS011;47267;48.130;-2.040;2023-05-17T06:00:56;4.63;;;1.00;;
61397;SDS011;47267;48.130;-2.040;2023-05-17T06:03:22;3.55;;;0.93;;
61397;SDS011;47267;48.130;-2.040;2023-05-17T06:05:48;3.25;;;1.20;;
61397;SDS011;47267;48.130;-2.040;2023-05-17T06:08:14;2.88;;;1.10;;
61397;SDS011;47267;48.130;-2.040;2023-05-17T06:10:40;4.13;;;1.30;;
61397;SDS011;47267;48.130;-2.040;2023-05-17T06:13:06;5.00;;;1.20;;
61397;SDS011;47267;48.130;-2.040;2023-05-17T06:15:32;4.40;;;1.45;;
61397;SDS011;47267;48.130;-2.040;2023-05-17T06:17:57;3.67;;;1.25;;
61397;SDS011;47267;48.130;-2.040;2023-05-17T06:20:23;2.58;;;1.10;;
61397;SDS011;47267;48.130;-2.040;2023-05-17T06:22:48;2.88;;;1.15;;
61397;SDS011;47267;48.130;-2.040;2023-05-17T06:25:14;5.78;;;1.20;;
61397;SDS011;47267;48.130;-2.040;2023-05-17T06:27:40;4.15;;;1.00;;
61397;SDS011;47267;48.130;-2.040;2023-05-17T06:30:06;3.03;;;1.23;;
61397;SDS011;47267;48.130;-2.040;2023-05-17T06:32:32;2.42;;;1.00;;
61397;SDS011;47267;48.130;-2.040;2023-05-17T06:34:58;4.35;;;1.20;;
61397;SDS011;47267;48.130;-2.040;2023-05-17T06:37:24;2.85;;;1.30;;
61397;SDS011;47267;48.130;-2.040;2023-05-17T06:39:50;4.63;;;1.00;;
61397;SDS011;47267;48.130;-2.040;2023-05-17T06:42:16;3.90;;;1.30;;
61397;SDS011;47267;48.130;-2.040;2023-05-17T06:44:42;4.22;;;1.58;;
61397;SDS011;47267;48.130;-2.040;2023-05-17T06:47:08;3.92;;;1.35;;
61397;SDS011;47267;48.130;-2.040;2023-05-17T06:49:33;5.15;;;1.55;;
61397;SDS011;47267;48.130;-2.040;2023-05-17T06:51:59;4.40;;;1.48;;
61397;SDS011;47267;48.130;-2.040;2023-05-17T06:54:28;3.72;;;1.27;;
61397;SDS011;47267;48.130;-2.040;2023-05-17T06:56:54;6.53;;;1.48;;
61397;SDS011;47267;48.130;-2.040;2023-05-17T06:59:23;4.22;;;1.30;;
61397;SDS011;47267;48.130;-2.040;2023-05-17T07:01:49;4.13;;;1.20;;
61397;SDS011;47267;48.130;-2.040;2023-05-17T07:04:14;3.28;;;1.50;;
61397;SDS011;47267;48.130;-2.040;2023-05-17T07:06:40;5.13;;;1.15;;
61397;SDS011;47267;48.130;-2.040;2023-05-17T07:09:06;3.50;;;1.30;;
61397;SDS011;47267;48.130;-2.040;2023-05-17T07:11:32;3.15;;;1.10;;
61397;SDS011;47267;48.130;-2.040;2023-05-17T07:13:57;4.93;;;1.40;;
61397;SDS011;47267;48.130;-2.040;2023-05-17T07:16:23;2.97;;;1.10;;
61397;SDS011;47267;48.130;-2.040;2023-05-17T07:18:49;4.72;;;1.00;;
61397;SDS011;47267;48.130;-2.040;2023-05-17T07:21:14;4.40;;;1.50;;
61397;SDS011;47267;48.130;-2.040;2023-05-17T07:23:40;3.80;;;1.25;;
61397;SDS011;47267;48.130;-2.040;2023-05-17T07:26:06;2.38;;;1.00;;
61397;SDS011;47267;48.130;-2.040;2023-05-17T07:28:31;2.53;;;1.15;;
61397;SDS011;47267;48.130;-2.040;2023-05-17T07:30:57;5.47;;;1.30;;
61397;SDS011;47267;48.130;-2.040;2023-05-17T07:33:23;2.65;;;1.00;;
61397;SDS011;47267;48.130;-2.040;2023-05-17T07:35:48;4.55;;;1.25;;
61397;SDS011;47267;48.130;-2.040;2023-05-17T07:38:14;5.05;;;1.30;;
61397;SDS011;47267;48.130;-2.040;2023-05-17T07:40:40;3.85;;;1.13;;
61397;SDS011;47267;48.130;-2.040;2023-05-17T07:43:05;4.28;;;1.00;;
61397;SDS011;47267;48.130;-2.040;2023-05-17T07:45:31;4.10;;;1.02;;
61397;SDS011;47267;48.130;-2.040;2023-05-17T07:47:56;2.90;;;0.98;;
61397;SDS011;47267;48.130;-2.040;2023-05-17T07:50:22;3.75;;;1.20;;
61397;SDS011;47267;48.130;-2.040;2023-05-17T07:52:48;3.65;;;1.30;;
61397;SDS011;47267;48.130;-2.040;2023-05-17T07:55:14;3.60;;;1.10;;
61397;SDS011;47267;48.130;-2.040;2023-05-17T07:57:39;2.60;;;1.02;;
61397;SDS011;47267;48.130;-2.040;2023-05-17T08:00:05;2.40;;;1.25;;
61397;SDS011;47267;48.130;-2.040;2023-05-17T08:02:32;3.65;;;1.00;;
61397;SDS011;47267;48.130;-2.040;2023-05-17T08:04:58;2.72;;;1.20;;
61397;SDS011;47267;48.130;-2.040;2023-05-17T08:07:24;3.53;;;1.40;;
61397;SDS011;47267;48.130;-2.040;2023-05-17T08:09:49;2.75;;;1.00;;
61397;SDS011;47267;48.130;-2.040;2023-05-17T08:12:15;3.65;;;1.33;;
61397;SDS011;47267;48.130;-2.040;2023-05-17T08:14:41;3.45;;;1.20;;
61397;SDS011;47267;48.130;-2.040;2023-05-17T08:17:06;3.22;;;1.10;;
61397;SDS011;47267;48.130;-2.040;2023-05-17T08:19:32;2.50;;;0.93;;
61397;SDS011;47267;48.130;-2.040;2023-05-17T08:21:58;1.75;;;0.98;;
61397;SDS011;47267;48.130;-2.040;2023-05-17T08:24:23;2.38;;;1.20;;
61397;SDS011;47267;48.130;-2.040;2023-05-17T08:26:50;1.63;;;0.98;;
61397;SDS011;47267;48.130;-2.040;2023-05-17T08:29:16;3.63;;;1.30;;
61397;SDS011;47267;48.130;-2.040;2023-05-17T08:31:42;2.67;;;1.20;;
61397;SDS011;47267;48.130;-2.040;2023-05-17T08:34:07;2.38;;;1.20;;
61397;SDS011;47267;48.130;-2.040;2023-05-17T08:36:33;2.42;;;1.00;;
61397;SDS011;47267;48.130;-2.040;2023-05-17T08:38:59;2.92;;;0.90;;
61397;SDS011;47267;48.130;-2.040;2023-05-17T08:41:24;3.08;;;1.33;;
61397;SDS011;47267;48.130;-2.040;2023-05-17T08:43:51;3.50;;;1.30;;
61397;SDS011;47267;48.130;-2.040;2023-05-17T08:46:18;1.55;;;0.90;;
61397;SDS011;47267;48.130;-2.040;2023-05-17T08:48:45;1.58;;;0.93;;
61397;SDS011;47267;48.130;-2.040;2023-05-17T08:51:17;2.97;;;1.20;;
61397;SDS011;47267;48.130;-2.040;2023-05-17T08:53:44;2.38;;;1.08;;
61397;SDS011;47267;48.130;-2.040;2023-05-17T08:56:11;2.97;;;1.27;;
61397;SDS011;47267;48.130;-2.040;2023-05-17T08:58:40;2.75;;;1.20;;
61397;SDS011;47267;48.130;-2.040;2023-05-17T09:01:08;2.80;;;1.17;;
61397;SDS011;47267;48.130;-2.040;2023-05-17T09:03:34;2.67;;;1.13;;
61397;SDS011;47267;48.130;-2.040;2023-05-17T09:06:04;5.55;;;1.63;;
61397;SDS011;47267;48.130;-2.040;2023-05-17T09:08:30;2.42;;;1.10;;
61397;SDS011;47267;48.130;-2.040;2023-05-17T09:10:57;3.38;;;1.40;;
61397;SDS011;47267;48.130;-2.040;2023-05-17T09:13:25;4.80;;;1.20;;
61397;SDS011;47267;48.130;-2.040;2023-05-17T09:15:51;3.10;;;1.17;;
61397;SDS011;47267;48.130;-2.040;2023-05-17T09:18:18;2.78;;;1.30;;
61397;SDS011;47267;48.130;-2.040;2023-05-17T09:20:52;3.88;;;1.60;;
61397;SDS011;47267;48.130;-2.040;2023-05-17T09:23:19;3.17;;;1.58;;
61397;SDS011;47267;48.130;-2.040;2023-05-17T09:25:46;3.03;;;1.10;;
61397;SDS011;47267;48.130;-2.040;2023-05-17T09:28:13;3.58;;;1.33;;
61397;SDS011;47267;48.130;-2.040;2023-05-17T09:30:42;3.97;;;1.83;;
61397;SDS011;47267;48.130;-2.040;2023-05-17T09:33:08;5.15;;;1.58;;
61397;SDS011;47267;48.130;-2.040;2023-05-17T09:35:35;3.40;;;1.35;;
61397;SDS011;47267;48.130;-2.040;2023-05-17T09:38:06;4.03;;;1.60;;
61397;SDS011;47267;48.130;-2.040;2023-05-17T09:40:37;2.58;;;1.42;;
61397;SDS011;47267;48.130;-2.040;2023-05-17T09:43:06;4.13;;;1.25;;
61397;SDS011;47267;48.130;-2.040;2023-05-17T09:45:32;3.42;;;1.67;;
61397;SDS011;47267;48.130;-2.040;2023-05-17T09:48:09;4.07;;;1.60;;
61397;SDS011;47267;48.130;-2.040;2023-05-17T09:50:48;3.10;;;1.30;;
61397;SDS011;47267;48.130;-2.040;2023-05-17T09:53:24;4.10;;;1.58;;
61397;SDS011;47267;48.130;-2.040;2023-05-17T09:55:50;3.42;;;1.42;;
61397;SDS011;47267;48.130;-2.040;2023-05-17T09:58:17;3.10;;;1.52;;
61397;SDS011;47267;48.130;-2.040;2023-05-17T10:00:43;2.38;;;1.40;;
61397;SDS011;47267;48.130;-2.040;2023-05-17T10:03:13;3.63;;;1.60;;
61397;SDS011;47267;48.130;-2.040;2023-05-17T10:05:39;4.85;;;1.75;;
61397;SDS011;47267;48.130;-2.040;2023-05-17T10:08:08;3.25;;;1.67;;
61397;SDS011;47267;48.130;-2.040;2023-05-17T10:10:37;4.57;;;1.80;;
61397;SDS011;47267;48.130;-2.040;2023-05-17T10:13:04;3.90;;;1.85;;
61397;SDS011;47267;48.130;-2.040;2023-05-17T10:15:32;2.85;;;1.50;;
61397;SDS011;47267;48.130;-2.040;2023-05-17T10:17:58;3.97;;;1.85;;
61397;SDS011;47267;48.130;-2.040;2023-05-17T10:20:25;3.15;;;1.30;;
61397;SDS011;47267;48.130;-2.040;2023-05-17T10:22:51;5.50;;;1.90;;
61397;SDS011;47267;48.130;-2.040;2023-05-17T10:25:18;3.70;;;1.73;;
61397;SDS011;47267;48.130;-2.040;2023-05-17T10:27:45;4.35;;;1.98;;
61397;SDS011;47267;48.130;-2.040;2023-05-17T10:30:14;4.45;;;1.98;;
61397;SDS011;47267;48.130;-2.040;2023-05-17T10:32:42;3.75;;;1.85;;
61397;SDS011;47267;48.130;-2.040;2023-05-17T10:35:09;4.60;;;1.98;;
61397;SDS011;47267;48.130;-2.040;2023-05-17T10:37:39;3.93;;;2.00;;
61397;SDS011;47267;48.130;-2.040;2023-05-17T10:40:06;3.72;;;1.90;;
61397;SDS011;47267;48.130;-2.040;2023-05-17T10:42:37;4.75;;;1.70;;
61397;SDS011;47267;48.130;-2.040;2023-05-17T10:45:10;3.83;;;2.00;;
61397;SDS011;47267;48.130;-2.040;2023-05-17T10:47:38;3.67;;;2.05;;
61397;SDS011;47267;48.130;-2.040;2023-05-17T10:50:09;5.50;;;1.95;;
61397;SDS011;47267;48.130;-2.040;2023-05-17T10:52:45;4.22;;;2.13;;
61397;SDS011;47267;48.130;-2.040;2023-05-17T10:55:13;2.97;;;1.98;;
61397;SDS011;47267;48.130;-2.040;2023-05-17T10:57:43;4.30;;;1.98;;
61397;SDS011;47267;48.130;-2.040;2023-05-17T11:00:09;4.00;;;2.03;;
61397;SDS011;47267;48.130;-2.040;2023-05-17T11:02:44;3.53;;;1.83;;
61397;SDS011;47267;48.130;-2.040;2023-05-17T11:05:21;4.18;;;2.20;;
61397;SDS011;47267;48.130;-2.040;2023-05-17T11:07:48;3.70;;;2.05;;
61397;SDS011;47267;48.130;-2.040;2023-05-17T11:10:14;4.13;;;2.10;;
61397;SDS011;47267;48.130;-2.040;2023-05-17T11:12:42;2.90;;;2.10;;
61397;SDS011;47267;48.130;-2.040;2023-05-17T11:23:02;3.65;;;2.20;;
61397;SDS011;47267;48.130;-2.040;2023-05-17T11:25:38;3.35;;;2.15;;
61397;SDS011;47267;48.130;-2.040;2023-05-17T11:28:05;4.95;;;2.40;;
61397;SDS011;47267;48.130;-2.040;2023-05-17T11:30:32;3.72;;;2.28;;
61397;SDS011;47267;48.130;-2.040;2023-05-17T11:32:58;5.18;;;2.42;;
61397;SDS011;47267;48.130;-2.040;2023-05-17T11:35:26;4.18;;;2.10;;
61397;SDS011;47267;48.130;-2.040;2023-05-17T11:40:47;5.32;;;2.60;;
61397;SDS011;47267;48.130;-2.040;2023-05-17T11:43:15;4.80;;;3.17;;
61397;SDS011;47267;48.130;-2.040;2023-05-17T11:45:49;6.30;;;2.63;;
61397;SDS011;47267;48.130;-2.040;2023-05-17T11:48:16;5.25;;;2.80;;
61397;SDS011;47267;48.130;-2.040;2023-05-17T11:50:44;3.90;;;2.78;;
61397;SDS011;47267;48.130;-2.040;2023-05-17T11:53:10;5.55;;;2.90;;
61397;SDS011;47267;48.130;-2.040;2023-05-17T11:55:41;5.90;;;3.13;;
61397;SDS011;47267;48.130;-2.040;2023-05-17T11:58:08;5.93;;;3.30;;
61397;SDS011;47267;48.130;-2.040;2023-05-17T12:00:36;4.78;;;3.13;;
61397;SDS011;47267;48.130;-2.040;2023-05-17T12:03:14;6.88;;;3.58;;
61397;SDS011;47267;48.130;-2.040;2023-05-17T12:05:44;5.75;;;3.70;;
61397;SDS011;47267;48.130;-2.040;2023-05-17T12:08:13;7.20;;;3.58;;
61397;SDS011;47267;48.130;-2.040;2023-05-17T12:10:45;6.97;;;4.30;;
61397;SDS011;47267;48.130;-2.040;2023-05-17T12:13:13;7.28;;;4.45;;
61397;SDS011;47267;48.130;-2.040;2023-05-17T12:15:39;8.10;;;4.40;;
61397;SDS011;47267;48.130;-2.040;2023-05-17T12:18:08;6.93;;;4.45;;
61397;SDS011;47267;48.130;-2.040;2023-05-17T12:20:34;8.05;;;4.65;;
61397;SDS011;47267;48.130;-2.040;2023-05-17T12:23:01;7.25;;;4.57;;
61397;SDS011;47267;48.130;-2.040;2023-05-17T12:25:27;10.55;;;5.65;;
61397;SDS011;47267;48.130;-2.040;2023-05-17T12:28:15;9.18;;;4.90;;
61397;SDS011;47267;48.130;-2.040;2023-05-17T12:30:40;8.98;;;4.70;;
61397;SDS011;47267;48.130;-2.040;2023-05-17T12:33:06;10.57;;;5.20;;
61397;SDS011;47267;48.130;-2.040;2023-05-17T12:35:32;12.00;;;5.57;;
61397;SDS011;47267;48.130;-2.040;2023-05-17T12:37:58;10.30;;;5.30;;
61397;SDS011;47267;48.130;-2.040;2023-05-17T12:40:25;10.48;;;5.65;;
61397;SDS011;47267;48.130;-2.040;2023-05-17T12:42:59;9.40;;;5.57;;
61397;SDS011;47267;48.130;-2.040;2023-05-17T12:45:28;8.82;;;5.18;;
61397;SDS011;47267;48.130;-2.040;2023-05-17T12:47:54;9.82;;;5.38;;
61397;SDS011;47267;48.130;-2.040;2023-05-17T12:50:29;12.32;;;5.55;;
61397;SDS011;47267;48.130;-2.040;2023-05-17T12:52:55;10.57;;;5.65;;
61397;SDS011;47267;48.130;-2.040;2023-05-17T12:55:21;8.93;;;5.38;;
61397;SDS011;47267;48.130;-2.040;2023-05-17T12:57:51;10.43;;;5.53;;
61397;SDS011;47267;48.130;-2.040;2023-05-17T13:00:18;9.52;;;4.80;;
61397;SDS011;47267;48.130;-2.040;2023-05-17T13:02:45;9.05;;;4.97;;
61397;SDS011;47267;48.130;-2.040;2023-05-17T13:05:17;10.02;;;5.07;;
61397;SDS011;47267;48.130;-2.040;2023-05-17T13:07:45;11.73;;;5.22;;
61397;SDS011;47267;48.130;-2.040;2023-05-17T13:10:23;8.82;;;4.60;;
61397;SDS011;47267;48.130;-2.040;2023-05-17T13:12:54;9.70;;;5.10;;
61397;SDS011;47267;48.130;-2.040;2023-05-17T13:15:25;8.53;;;5.00;;
61397;SDS011;47267;48.130;-2.040;2023-05-17T13:17:54;8.10;;;5.00;;
61397;SDS011;47267;48.130;-2.040;2023-05-17T13:20:20;6.90;;;4.78;;
61397;SDS011;47267;48.130;-2.040;2023-05-17T13:22:46;7.28;;;4.60;;
61397;SDS011;47267;48.130;-2.040;2023-05-17T13:25:12;9.73;;;4.65;;
61397;SDS011;47267;48.130;-2.040;2023-05-17T13:27:38;8.45;;;4.95;;
61397;SDS011;47267;48.130;-2.040;2023-05-17T13:30:09;7.55;;;4.55;;
61397;SDS011;47267;48.130;-2.040;2023-05-17T13:32:36;8.10;;;4.40;;
61397;SDS011;47267;48.130;-2.040;2023-05-17T13:35:01;7.40;;;4.55;;
61397;SDS011;47267;48.130;-2.040;2023-05-17T13:37:27;8.45;;;5.10;;
61397;SDS011;47267;48.130;-2.040;2023-05-17T13:39:53;8.05;;;4.40;;
61397;SDS011;47267;48.130;-2.040;2023-05-17T13:42:20;8.63;;;4.53;;
61397;SDS011;47267;48.130;-2.040;2023-05-17T13:44:47;7.38;;;4.50;;
61397;SDS011;47267;48.130;-2.040;2023-05-17T13:47:13;8.48;;;4.47;;
61397;SDS011;47267;48.130;-2.040;2023-05-17T13:49:39;8.07;;;4.70;;
61397;SDS011;47267;48.130;-2.040;2023-05-17T13:52:06;7.57;;;4.50;;
61397;SDS011;47267;48.130;-2.040;2023-05-17T13:54:36;8.43;;;4.10;;
61397;SDS011;47267;48.130;-2.040;2023-05-17T13:57:03;9.27;;;4.68;;
61397;SDS011;47267;48.130;-2.040;2023-05-17T13:59:31;7.15;;;4.20;;
61397;SDS011;47267;48.130;-2.040;2023-05-17T14:01:57;7.28;;;4.80;;
61397;SDS011;47267;48.130;-2.040;2023-05-17T14:04:23;7.28;;;4.57;;
61397;SDS011;47267;48.130;-2.040;2023-05-17T14:06:49;6.93;;;3.97;;
61397;SDS011;47267;48.130;-2.040;2023-05-17T14:09:15;5.90;;;4.00;;
61397;SDS011;47267;48.130;-2.040;2023-05-17T14:11:41;7.32;;;4.13;;
61397;SDS011;47267;48.130;-2.040;2023-05-17T14:14:06;9.20;;;5.15;;
61397;SDS011;47267;48.130;-2.040;2023-05-17T14:16:32;6.68;;;4.20;;
61397;SDS011;47267;48.130;-2.040;2023-05-17T14:18:58;6.45;;;4.30;;
61397;SDS011;47267;48.130;-2.040;2023-05-17T14:21:24;5.95;;;3.92;;
61397;SDS011;47267;48.130;-2.040;2023-05-17T14:23:50;7.57;;;4.18;;
61397;SDS011;47267;48.130;-2.040;2023-05-17T14:26:16;6.65;;;4.05;;
61397;SDS011;47267;48.130;-2.040;2023-05-17T14:28:41;6.88;;;4.28;;
61397;SDS011;47267;48.130;-2.040;2023-05-17T14:31:07;6.57;;;4.00;;
61397;SDS011;47267;48.130;-2.040;2023-05-17T14:33:33;6.90;;;3.83;;
61397;SDS011;47267;48.130;-2.040;2023-05-17T14:35:59;6.40;;;3.97;;
61397;SDS011;47267;48.130;-2.040;2023-05-17T14:38:25;6.38;;;4.10;;
61397;SDS011;47267;48.130;-2.040;2023-05-17T14:40:51;5.05;;;3.65;;
61397;SDS011;47267;48.130;-2.040;2023-05-17T14:43:16;8.45;;;3.97;;
61397;SDS011;47267;48.130;-2.040;2023-05-17T14:45:44;6.95;;;3.65;;
61397;SDS011;47267;48.130;-2.040;2023-05-17T14:48:09;5.15;;;3.53;;
61397;SDS011;47267;48.130;-2.040;2023-05-17T14:50:35;6.57;;;3.53;;